Cold Spring, Massachusetts
Current Conditions -  °F | °C
As of 10:54 PM on Friday 24 Oct 2014 (Local Time) from KPSF Reporting Station
Overcast Overcast  
Wind Chill: 43°   Ceiling: 2800
Heat Index: 47°   Visibility: 10mi
Dew Point: 42°   Wind: 8mph
Humidity: 83%   Direction: 320°NW
Pressure: 29.81"   Gusts: 16mph
Location:  42.2038°N, 73.0917°W
Report Text: KPSF 250254Z AUTO 32007G14KT 10SM FEW018 OVC028 08/06 A2981 RMK AO2 SLP091 T00830056 53004
Loading
Personal Weather Stations






























Interactive Weather Map
Tropical Storm Tracking
New forecast layout! Learn more

10-Day Weather Forecast

Advertisements
Track Severe Weather on mobile